Αρχική σελίδα
METAR-TAF:

METAR-TAF

Αεροδρόμια :

Imperial Municipal Airport

Imperial, Νεμπράσκα, Ηνωμένες Πολιτείες Αμερικής

γεωγραφικό πλάτος: 40-31N, γεωγραφικό μήκος: 101-37W, υψόμετρο: 997 μ

Παρών καιρός

Η αναφορά έγινε 19 λεπτά πριν, στις 00:53 UTC
Άνεμος 3 kt από ΝA
Θερμοκρασία 11°C
Υγρασία 50%
Πίεση 1016 hPa
Ορατότητα: 16.1 χλμ
Καθαρός ουρανός

METAR: KIML 220053Z AUTO 14003KT 10SM CLR 11/01 A3001 RMK AO2 SLP174 T01060006

Χρόνος: 19:12 (01:12 UTC)


TAF: λείπει

Μετεωρολογικές αναφορές και προγνώσεις για περισσότερα από 4000 αεροδρόμια (δελτία METAR και TAF).

Οι διαθέσιμοι σταθμοί απεικονίζονται στο χάρτη με κίτρινες και κόκκινες κουκκίδες.

Μετακινήστε το ποντίκι πάνω από τις κουκκίδες για να δείτε το όνομα του σταθμού.

Στη συνέχεια, κάντε κλικ για να δείτε τις μετεωρολογικές αναφορές και τις προγνώσεις καιρού.

Για να αλλάξετε το χάρτη: κάντε κλικ στα πράσινα κουμπιά με τον μαύρο σταυρό για να ζουμάρετε, στο πράσινο κουμπί με την παύλα για να αφαιρέσετε το ζουμ ή στα πράσινα βέλη για να αντιπαραβάλλετε χάρτες.


METAR-TAF: